sensor_id;sensor_type;location;lat;lon;timestamp;P1;durP1;ratioP1;P2;durP2;ratioP2
4698;SDS011;33708;49.466;11.176;2023-01-10T00:01:21;9.13;;;1.80;;
4698;SDS011;33708;49.466;11.176;2023-01-10T00:03:47;11.13;;;1.70;;
4698;SDS011;33708;49.466;11.176;2023-01-10T00:06:12;8.87;;;2.00;;
4698;SDS011;33708;49.466;11.176;2023-01-10T00:08:38;11.23;;;2.77;;
4698;SDS011;33708;49.466;11.176;2023-01-10T00:11:04;10.80;;;2.67;;
4698;SDS011;33708;49.466;11.176;2023-01-10T00:13:51;11.97;;;2.80;;
4698;SDS011;33708;49.466;11.176;2023-01-10T00:16:17;8.60;;;2.33;;
4698;SDS011;33708;49.466;11.176;2023-01-10T00:18:43;13.67;;;2.23;;
4698;SDS011;33708;49.466;11.176;2023-01-10T00:21:09;10.10;;;1.97;;
4698;SDS011;33708;49.466;11.176;2023-01-10T00:23:34;9.97;;;2.10;;
4698;SDS011;33708;49.466;11.176;2023-01-10T00:26:00;8.80;;;1.70;;
4698;SDS011;33708;49.466;11.176;2023-01-10T00:28:26;9.40;;;2.20;;
4698;SDS011;33708;49.466;11.176;2023-01-10T00:30:52;12.43;;;2.30;;
4698;SDS011;33708;49.466;11.176;2023-01-10T00:33:29;10.00;;;2.47;;
4698;SDS011;33708;49.466;11.176;2023-01-10T00:35:58;9.67;;;2.47;;
4698;SDS011;33708;49.466;11.176;2023-01-10T00:38:25;13.30;;;2.90;;
4698;SDS011;33708;49.466;11.176;2023-01-10T00:40:51;10.80;;;2.30;;
4698;SDS011;33708;49.466;11.176;2023-01-10T00:43:17;11.93;;;2.37;;
4698;SDS011;33708;49.466;11.176;2023-01-10T00:46:01;9.07;;;1.90;;
4698;SDS011;33708;49.466;11.176;2023-01-10T00:48:27;10.03;;;2.10;;
4698;SDS011;33708;49.466;11.176;2023-01-10T00:50:52;14.87;;;3.23;;
4698;SDS011;33708;49.466;11.176;2023-01-10T00:53:18;9.07;;;2.40;;
4698;SDS011;33708;49.466;11.176;2023-01-10T00:55:44;9.67;;;2.10;;
4698;SDS011;33708;49.466;11.176;2023-01-10T00:58:10;9.67;;;2.30;;
4698;SDS011;33708;49.466;11.176;2023-01-10T01:00:41;9.50;;;2.30;;
4698;SDS011;33708;49.466;11.176;2023-01-10T01:03:10;11.73;;;2.03;;
4698;SDS011;33708;49.466;11.176;2023-01-10T01:05:46;14.33;;;2.40;;
4698;SDS011;33708;49.466;11.176;2023-01-10T01:08:49;9.13;;;1.87;;
4698;SDS011;33708;49.466;11.176;2023-01-10T01:11:15;10.80;;;2.40;;
4698;SDS011;33708;49.466;11.176;2023-01-10T01:13:41;9.17;;;2.23;;
4698;SDS011;33708;49.466;11.176;2023-01-10T01:16:07;10.43;;;1.97;;
4698;SDS011;33708;49.466;11.176;2023-01-10T01:18:32;9.07;;;2.10;;
4698;SDS011;33708;49.466;11.176;2023-01-10T01:20:58;10.20;;;2.37;;
4698;SDS011;33708;49.466;11.176;2023-01-10T01:23:29;11.90;;;2.80;;
4698;SDS011;33708;49.466;11.176;2023-01-10T01:28:50;12.57;;;2.50;;
4698;SDS011;33708;49.466;11.176;2023-01-10T01:31:49;9.50;;;2.60;;
4698;SDS011;33708;49.466;11.176;2023-01-10T01:34:36;8.43;;;2.20;;
4698;SDS011;33708;49.466;11.176;2023-01-10T01:37:14;9.37;;;2.30;;
4698;SDS011;33708;49.466;11.176;2023-01-10T01:40:02;11.10;;;2.63;;
4698;SDS011;33708;49.466;11.176;2023-01-10T01:42:33;8.40;;;2.20;;
4698;SDS011;33708;49.466;11.176;2023-01-10T01:47:44;14.53;;;3.50;;
4698;SDS011;33708;49.466;11.176;2023-01-10T01:52:55;12.67;;;3.07;;
4698;SDS011;33708;49.466;11.176;2023-01-10T01:55:25;8.40;;;2.57;;
4698;SDS011;33708;49.466;11.176;2023-01-10T01:57:59;9.80;;;3.10;;
4698;SDS011;33708;49.466;11.176;2023-01-10T02:00:30;10.13;;;2.90;;
4698;SDS011;33708;49.466;11.176;2023-01-10T02:02:56;9.07;;;2.63;;
4698;SDS011;33708;49.466;11.176;2023-01-10T02:05:27;8.97;;;2.77;;
4698;SDS011;33708;49.466;11.176;2023-01-10T02:07:56;8.80;;;2.67;;
4698;SDS011;33708;49.466;11.176;2023-01-10T02:10:30;9.83;;;2.93;;
4698;SDS011;33708;49.466;11.176;2023-01-10T02:13:06;12.10;;;3.10;;
4698;SDS011;33708;49.466;11.176;2023-01-10T02:15:35;8.90;;;2.93;;
4698;SDS011;33708;49.466;11.176;2023-01-10T02:18:01;9.13;;;3.17;;
4698;SDS011;33708;49.466;11.176;2023-01-10T02:20:28;10.07;;;3.17;;
4698;SDS011;33708;49.466;11.176;2023-01-10T02:29:05;8.20;;;2.50;;
4698;SDS011;33708;49.466;11.176;2023-01-10T02:31:57;10.53;;;3.50;;
4698;SDS011;33708;49.466;11.176;2023-01-10T02:40:29;7.77;;;1.93;;
4698;SDS011;33708;49.466;11.176;2023-01-10T02:45:35;9.80;;;2.70;;
4698;SDS011;33708;49.466;11.176;2023-01-10T02:48:05;8.73;;;2.10;;
4698;SDS011;33708;49.466;11.176;2023-01-10T02:53:03;10.80;;;3.17;;
4698;SDS011;33708;49.466;11.176;2023-01-10T03:03:50;8.10;;;2.10;;
4698;SDS011;33708;49.466;11.176;2023-01-10T03:06:30;8.00;;;2.17;;
4698;SDS011;33708;49.466;11.176;2023-01-10T03:11:40;8.87;;;2.20;;
4698;SDS011;33708;49.466;11.176;2023-01-10T03:14:18;7.83;;;2.13;;
4698;SDS011;33708;49.466;11.176;2023-01-10T03:16:59;8.37;;;2.33;;
4698;SDS011;33708;49.466;11.176;2023-01-10T03:19:32;8.43;;;2.00;;
4698;SDS011;33708;49.466;11.176;2023-01-10T03:22:01;9.63;;;2.60;;
4698;SDS011;33708;49.466;11.176;2023-01-10T03:24:33;9.30;;;2.80;;
4698;SDS011;33708;49.466;11.176;2023-01-10T03:27:05;8.40;;;2.70;;
4698;SDS011;33708;49.466;11.176;2023-01-10T03:29:42;8.53;;;2.53;;
4698;SDS011;33708;49.466;11.176;2023-01-10T03:32:27;8.80;;;3.00;;
4698;SDS011;33708;49.466;11.176;2023-01-10T03:34:55;11.47;;;2.97;;
4698;SDS011;33708;49.466;11.176;2023-01-10T03:37:26;10.73;;;2.83;;
4698;SDS011;33708;49.466;11.176;2023-01-10T03:42:50;9.30;;;2.50;;
4698;SDS011;33708;49.466;11.176;2023-01-10T03:48:28;9.23;;;3.00;;
4698;SDS011;33708;49.466;11.176;2023-01-10T03:51:02;8.30;;;2.70;;
4698;SDS011;33708;49.466;11.176;2023-01-10T03:53:33;11.03;;;3.33;;
4698;SDS011;33708;49.466;11.176;2023-01-10T03:56:02;10.43;;;3.17;;
4698;SDS011;33708;49.466;11.176;2023-01-10T03:58:28;10.90;;;3.20;;
4698;SDS011;33708;49.466;11.176;2023-01-10T04:00:54;10.50;;;3.70;;
4698;SDS011;33708;49.466;11.176;2023-01-10T04:03:19;9.30;;;3.07;;
4698;SDS011;33708;49.466;11.176;2023-01-10T04:05:45;11.40;;;3.00;;
4698;SDS011;33708;49.466;11.176;2023-01-10T04:08:10;9.83;;;2.97;;
4698;SDS011;33708;49.466;11.176;2023-01-10T04:10:36;10.30;;;3.03;;
4698;SDS011;33708;49.466;11.176;2023-01-10T04:13:02;8.60;;;3.10;;
4698;SDS011;33708;49.466;11.176;2023-01-10T04:15:28;12.07;;;3.40;;
4698;SDS011;33708;49.466;11.176;2023-01-10T04:17:54;11.00;;;3.17;;
4698;SDS011;33708;49.466;11.176;2023-01-10T04:20:20;8.77;;;3.03;;
4698;SDS011;33708;49.466;11.176;2023-01-10T04:22:46;9.27;;;3.13;;
4698;SDS011;33708;49.466;11.176;2023-01-10T04:25:14;14.10;;;3.10;;
4698;SDS011;33708;49.466;11.176;2023-01-10T04:27:40;10.57;;;3.20;;
4698;SDS011;33708;49.466;11.176;2023-01-10T04:30:06;9.40;;;3.17;;
4698;SDS011;33708;49.466;11.176;2023-01-10T04:32:32;9.80;;;3.70;;
4698;SDS011;33708;49.466;11.176;2023-01-10T04:34:57;10.63;;;3.50;;
4698;SDS011;33708;49.466;11.176;2023-01-10T04:37:23;10.33;;;3.70;;
4698;SDS011;33708;49.466;11.176;2023-01-10T04:39:49;8.73;;;2.87;;
4698;SDS011;33708;49.466;11.176;2023-01-10T04:42:15;9.00;;;3.17;;
4698;SDS011;33708;49.466;11.176;2023-01-10T04:44:41;13.40;;;3.70;;
4698;SDS011;33708;49.466;11.176;2023-01-10T04:47:06;12.50;;;3.70;;
4698;SDS011;33708;49.466;11.176;2023-01-10T04:49:32;10.77;;;3.60;;
4698;SDS011;33708;49.466;11.176;2023-01-10T04:51:58;11.00;;;3.20;;
4698;SDS011;33708;49.466;11.176;2023-01-10T04:54:23;10.73;;;4.43;;
4698;SDS011;33708;49.466;11.176;2023-01-10T04:56:49;9.57;;;3.73;;
4698;SDS011;33708;49.466;11.176;2023-01-10T04:59:15;9.83;;;3.77;;
4698;SDS011;33708;49.466;11.176;2023-01-10T05:01:41;11.60;;;4.30;;
4698;SDS011;33708;49.466;11.176;2023-01-10T05:04:06;9.40;;;3.40;;
4698;SDS011;33708;49.466;11.176;2023-01-10T05:06:32;14.33;;;4.50;;
4698;SDS011;33708;49.466;11.176;2023-01-10T05:08:58;11.90;;;3.97;;
4698;SDS011;33708;49.466;11.176;2023-01-10T05:11:24;12.97;;;4.40;;
4698;SDS011;33708;49.466;11.176;2023-01-10T05:13:49;11.43;;;3.83;;
4698;SDS011;33708;49.466;11.176;2023-01-10T05:16:15;13.10;;;3.63;;
4698;SDS011;33708;49.466;11.176;2023-01-10T05:18:41;10.37;;;4.00;;
4698;SDS011;33708;49.466;11.176;2023-01-10T05:21:08;11.37;;;4.37;;
4698;SDS011;33708;49.466;11.176;2023-01-10T05:23:35;10.83;;;4.10;;
4698;SDS011;33708;49.466;11.176;2023-01-10T05:26:05;19.60;;;4.30;;
4698;SDS011;33708;49.466;11.176;2023-01-10T05:28:32;10.97;;;4.07;;
4698;SDS011;33708;49.466;11.176;2023-01-10T05:30:58;12.80;;;4.20;;
4698;SDS011;33708;49.466;11.176;2023-01-10T05:33:23;14.53;;;4.40;;
4698;SDS011;33708;49.466;11.176;2023-01-10T05:35:49;11.77;;;4.57;;
4698;SDS011;33708;49.466;11.176;2023-01-10T05:38:15;13.57;;;4.90;;
4698;SDS011;33708;49.466;11.176;2023-01-10T05:40:41;11.80;;;4.47;;
4698;SDS011;33708;49.466;11.176;2023-01-10T05:43:06;11.53;;;5.00;;
4698;SDS011;33708;49.466;11.176;2023-01-10T05:45:32;12.67;;;4.90;;
4698;SDS011;33708;49.466;11.176;2023-01-10T05:47:58;11.43;;;4.80;;
4698;SDS011;33708;49.466;11.176;2023-01-10T05:50:23;13.13;;;5.00;;
4698;SDS011;33708;49.466;11.176;2023-01-10T05:52:49;15.10;;;4.80;;
4698;SDS011;33708;49.466;11.176;2023-01-10T05:55:15;14.20;;;5.10;;
4698;SDS011;33708;49.466;11.176;2023-01-10T05:57:40;13.40;;;4.63;;
4698;SDS011;33708;49.466;11.176;2023-01-10T06:00:06;13.00;;;4.40;;
4698;SDS011;33708;49.466;11.176;2023-01-10T06:02:32;12.47;;;4.77;;
4698;SDS011;33708;49.466;11.176;2023-01-10T06:04:58;13.90;;;4.57;;
4698;SDS011;33708;49.466;11.176;2023-01-10T06:07:23;12.60;;;4.60;;
4698;SDS011;33708;49.466;11.176;2023-01-10T06:09:49;13.03;;;5.00;;
4698;SDS011;33708;49.466;11.176;2023-01-10T06:12:15;10.47;;;4.53;;
4698;SDS011;33708;49.466;11.176;2023-01-10T06:14:44;12.03;;;4.13;;
4698;SDS011;33708;49.466;11.176;2023-01-10T06:17:10;14.87;;;4.77;;
4698;SDS011;33708;49.466;11.176;2023-01-10T06:19:36;13.70;;;4.30;;
4698;SDS011;33708;49.466;11.176;2023-01-10T06:22:02;11.47;;;4.67;;
4698;SDS011;33708;49.466;11.176;2023-01-10T06:24:28;12.80;;;5.33;;
4698;SDS011;33708;49.466;11.176;2023-01-10T06:26:53;14.47;;;5.03;;
4698;SDS011;33708;49.466;11.176;2023-01-10T06:29:19;16.73;;;4.57;;
4698;SDS011;33708;49.466;11.176;2023-01-10T06:31:45;14.30;;;4.53;;
4698;SDS011;33708;49.466;11.176;2023-01-10T06:34:10;11.03;;;4.47;;
4698;SDS011;33708;49.466;11.176;2023-01-10T06:36:36;11.20;;;3.93;;
4698;SDS011;33708;49.466;11.176;2023-01-10T06:39:02;14.37;;;4.50;;
4698;SDS011;33708;49.466;11.176;2023-01-10T06:41:28;12.07;;;4.50;;
4698;SDS011;33708;49.466;11.176;2023-01-10T06:43:53;11.50;;;4.33;;
4698;SDS011;33708;49.466;11.176;2023-01-10T06:46:19;12.20;;;5.00;;
4698;SDS011;33708;49.466;11.176;2023-01-10T06:48:45;11.83;;;4.00;;
4698;SDS011;33708;49.466;11.176;2023-01-10T06:51:12;10.60;;;3.50;;
4698;SDS011;33708;49.466;11.176;2023-01-10T06:53:39;12.80;;;4.20;;
4698;SDS011;33708;49.466;11.176;2023-01-10T06:56:05;11.60;;;3.83;;
4698;SDS011;33708;49.466;11.176;2023-01-10T06:58:31;17.43;;;4.53;;
4698;SDS011;33708;49.466;11.176;2023-01-10T07:00:58;14.43;;;4.40;;
4698;SDS011;33708;49.466;11.176;2023-01-10T07:03:24;11.87;;;3.47;;
4698;SDS011;33708;49.466;11.176;2023-01-10T07:05:50;10.00;;;3.50;;
4698;SDS011;33708;49.466;11.176;2023-01-10T07:08:15;14.00;;;4.40;;
4698;SDS011;33708;49.466;11.176;2023-01-10T07:10:41;12.30;;;4.10;;
4698;SDS011;33708;49.466;11.176;2023-01-10T07:13:08;15.03;;;3.50;;
4698;SDS011;33708;49.466;11.176;2023-01-10T07:15:34;14.47;;;4.13;;
4698;SDS011;33708;49.466;11.176;2023-01-10T07:18:00;15.90;;;3.43;;
4698;SDS011;33708;49.466;11.176;2023-01-10T07:20:26;13.30;;;3.77;;
4698;SDS011;33708;49.466;11.176;2023-01-10T07:22:55;10.10;;;3.30;;
4698;SDS011;33708;49.466;11.176;2023-01-10T07:25:22;12.30;;;4.10;;
4698;SDS011;33708;49.466;11.176;2023-01-10T07:27:49;15.20;;;4.10;;
4698;SDS011;33708;49.466;11.176;2023-01-10T07:30:14;11.03;;;3.47;;
4698;SDS011;33708;49.466;11.176;2023-01-10T07:32:40;13.67;;;3.97;;
4698;SDS011;33708;49.466;11.176;2023-01-10T07:35:06;10.80;;;3.30;;
4698;SDS011;33708;49.466;11.176;2023-01-10T07:37:32;12.80;;;3.47;;
4698;SDS011;33708;49.466;11.176;2023-01-10T07:39:58;12.77;;;4.00;;
4698;SDS011;33708;49.466;11.176;2023-01-10T07:42:24;13.67;;;3.77;;
4698;SDS011;33708;49.466;11.176;2023-01-10T07:44:49;14.30;;;3.37;;
4698;SDS011;33708;49.466;11.176;2023-01-10T07:47:15;12.90;;;3.20;;
4698;SDS011;33708;49.466;11.176;2023-01-10T07:49:40;15.50;;;3.47;;
4698;SDS011;33708;49.466;11.176;2023-01-10T07:52:06;12.93;;;3.33;;
4698;SDS011;33708;49.466;11.176;2023-01-10T07:54:33;10.40;;;3.20;;
4698;SDS011;33708;49.466;11.176;2023-01-10T07:56:59;12.73;;;3.13;;
4698;SDS011;33708;49.466;11.176;2023-01-10T07:59:25;12.87;;;3.10;;
4698;SDS011;33708;49.466;11.176;2023-01-10T08:01:51;14.53;;;2.60;;
4698;SDS011;33708;49.466;11.176;2023-01-10T08:04:18;10.17;;;2.60;;
4698;SDS011;33708;49.466;11.176;2023-01-10T08:06:44;13.73;;;3.27;;
4698;SDS011;33708;49.466;11.176;2023-01-10T08:09:09;12.37;;;2.93;;
4698;SDS011;33708;49.466;11.176;2023-01-10T08:11:35;12.27;;;2.90;;
4698;SDS011;33708;49.466;11.176;2023-01-10T08:14:01;14.80;;;3.10;;
4698;SDS011;33708;49.466;11.176;2023-01-10T08:16:26;15.00;;;2.20;;
4698;SDS011;33708;49.466;11.176;2023-01-10T08:18:52;12.27;;;2.57;;
4698;SDS011;33708;49.466;11.176;2023-01-10T08:21:18;8.60;;;2.77;;
4698;SDS011;33708;49.466;11.176;2023-01-10T08:23:43;12.90;;;3.50;;
4698;SDS011;33708;49.466;11.176;2023-01-10T08:26:09;14.47;;;3.93;;
4698;SDS011;33708;49.466;11.176;2023-01-10T08:28:35;19.40;;;4.97;;
4698;SDS011;33708;49.466;11.176;2023-01-10T08:31:06;15.70;;;3.30;;
4698;SDS011;33708;49.466;11.176;2023-01-10T08:33:32;14.87;;;3.73;;
4698;SDS011;33708;49.466;11.176;2023-01-10T08:35:58;16.70;;;3.43;;
4698;SDS011;33708;49.466;11.176;2023-01-10T08:38:24;19.50;;;4.80;;
4698;SDS011;33708;49.466;11.176;2023-01-10T08:40:50;15.03;;;5.00;;
4698;SDS011;33708;49.466;11.176;2023-01-10T08:43:15;15.87;;;4.20;;
4698;SDS011;33708;49.466;11.176;2023-01-10T08:45:41;16.33;;;4.80;;
4698;SDS011;33708;49.466;11.176;2023-01-10T08:48:07;15.23;;;4.13;;
4698;SDS011;33708;49.466;11.176;2023-01-10T08:50:34;15.47;;;3.70;;
4698;SDS011;33708;49.466;11.176;2023-01-10T08:53:00;14.83;;;4.27;;
4698;SDS011;33708;49.466;11.176;2023-01-10T08:55:26;15.70;;;3.80;;
4698;SDS011;33708;49.466;11.176;2023-01-10T08:57:52;16.33;;;3.40;;
4698;SDS011;33708;49.466;11.176;2023-01-10T09:00:18;24.47;;;4.10;;
4698;SDS011;33708;49.466;11.176;2023-01-10T09:02:44;19.67;;;4.20;;
4698;SDS011;33708;49.466;11.176;2023-01-10T09:05:10;13.13;;;3.47;;
4698;SDS011;33708;49.466;11.176;2023-01-10T09:07:36;26.80;;;3.53;;
4698;SDS011;33708;49.466;11.176;2023-01-10T09:10:02;14.57;;;3.63;;
4698;SDS011;33708;49.466;11.176;2023-01-10T09:12:28;16.43;;;3.23;;
4698;SDS011;33708;49.466;11.176;2023-01-10T09:15:17;16.13;;;4.23;;
4698;SDS011;33708;49.466;11.176;2023-01-10T09:17:42;14.80;;;3.60;;
4698;SDS011;33708;49.466;11.176;2023-01-10T09:20:08;14.00;;;3.10;;
4698;SDS011;33708;49.466;11.176;2023-01-10T09:22:37;12.63;;;3.87;;
4698;SDS011;33708;49.466;11.176;2023-01-10T09:25:04;14.00;;;4.03;;
4698;SDS011;33708;49.466;11.176;2023-01-10T09:27:31;16.57;;;3.60;;
4698;SDS011;33708;49.466;11.176;2023-01-10T09:29:57;13.00;;;3.80;;
4698;SDS011;33708;49.466;11.176;2023-01-10T09:32:23;15.20;;;3.93;;
4698;SDS011;33708;49.466;11.176;2023-01-10T09:34:49;15.00;;;4.07;;
4698;SDS011;33708;49.466;11.176;2023-01-10T09:37:14;13.53;;;3.10;;
4698;SDS011;33708;49.466;11.176;2023-01-10T09:39:40;15.97;;;3.80;;
4698;SDS011;33708;49.466;11.176;2023-01-10T09:47:36;33.93;;;12.67;;
4698;SDS011;33708;49.466;11.176;2023-01-10T09:52:54;18.30;;;6.07;;
4698;SDS011;33708;49.466;11.176;2023-01-10T09:55:27;17.77;;;4.67;;
4698;SDS011;33708;49.466;11.176;2023-01-10T09:57:59;18.87;;;4.07;;
4698;SDS011;33708;49.466;11.176;2023-01-10T10:00:37;26.30;;;4.20;;
4698;SDS011;33708;49.466;11.176;2023-01-10T10:03:18;18.67;;;3.40;;
4698;SDS011;33708;49.466;11.176;2023-01-10T10:05:48;16.10;;;3.57;;
4698;SDS011;33708;49.466;11.176;2023-01-10T10:08:14;16.20;;;3.60;;
4698;SDS011;33708;49.466;11.176;2023-01-10T10:10:48;20.63;;;3.27;;
4698;SDS011;33708;49.466;11.176;2023-01-10T10:13:39;17.23;;;3.83;;
4698;SDS011;33708;49.466;11.176;2023-01-10T10:16:13;19.57;;;4.57;;
4698;SDS011;33708;49.466;11.176;2023-01-10T10:21:42;16.43;;;4.60;;
4698;SDS011;33708;49.466;11.176;2023-01-10T10:24:24;19.60;;;3.30;;
4698;SDS011;33708;49.466;11.176;2023-01-10T10:35:15;16.90;;;3.43;;
4698;SDS011;33708;49.466;11.176;2023-01-10T10:38:01;17.43;;;3.50;;
4698;SDS011;33708;49.466;11.176;2023-01-10T10:40:49;13.70;;;2.80;;
4698;SDS011;33708;49.466;11.176;2023-01-10T10:43:18;12.53;;;2.90;;
4698;SDS011;33708;49.466;11.176;2023-01-10T10:45:51;11.77;;;2.90;;
4698;SDS011;33708;49.466;11.176;2023-01-10T10:48:31;10.93;;;2.80;;
4698;SDS011;33708;49.466;11.176;2023-01-10T10:51:07;17.37;;;3.53;;
4698;SDS011;33708;49.466;11.176;2023-01-10T10:53:40;13.83;;;3.50;;
4698;SDS011;33708;49.466;11.176;2023-01-10T10:56:08;20.80;;;4.50;;
4698;SDS011;33708;49.466;11.176;2023-01-10T10:58:39;12.83;;;2.53;;
4698;SDS011;33708;49.466;11.176;2023-01-10T11:01:10;17.77;;;3.10;;
4698;SDS011;33708;49.466;11.176;2023-01-10T11:03:56;11.20;;;3.10;;
4698;SDS011;33708;49.466;11.176;2023-01-10T11:06:25;12.23;;;2.80;;
4698;SDS011;33708;49.466;11.176;2023-01-10T11:08:57;14.90;;;3.70;;
4698;SDS011;33708;49.466;11.176;2023-01-10T11:11:26;17.03;;;3.60;;
4698;SDS011;33708;49.466;11.176;2023-01-10T11:13:56;17.27;;;3.50;;
4698;SDS011;33708;49.466;11.176;2023-01-10T11:16:35;15.47;;;3.20;;
4698;SDS011;33708;49.466;11.176;2023-01-10T11:19:22;19.43;;;3.57;;
4698;SDS011;33708;49.466;11.176;2023-01-10T11:21:56;13.97;;;3.37;;
4698;SDS011;33708;49.466;11.176;2023-01-10T11:24:29;22.97;;;3.60;;
4698;SDS011;33708;49.466;11.176;2023-01-10T11:27:19;14.80;;;2.87;;
4698;SDS011;33708;49.466;11.176;2023-01-10T11:29:48;14.60;;;3.30;;
4698;SDS011;33708;49.466;11.176;2023-01-10T11:32:16;12.90;;;2.50;;
4698;SDS011;33708;49.466;11.176;2023-01-10T11:34:55;18.17;;;2.93;;
4698;SDS011;33708;49.466;11.176;2023-01-10T11:37:33;18.37;;;3.10;;
4698;SDS011;33708;49.466;11.176;2023-01-10T11:42:48;14.80;;;3.07;;
4698;SDS011;33708;49.466;11.176;2023-01-10T11:50:34;13.93;;;3.03;;
4698;SDS011;33708;49.466;11.176;2023-01-10T11:53:02;14.87;;;2.90;;
4698;SDS011;33708;49.466;11.176;2023-01-10T11:55:30;16.20;;;3.07;;
4698;SDS011;33708;49.466;11.176;2023-01-10T11:58:05;15.73;;;3.10;;
4698;SDS011;33708;49.466;11.176;2023-01-10T12:00:47;12.97;;;2.90;;
4698;SDS011;33708;49.466;11.176;2023-01-10T12:03:22;13.17;;;2.50;;
4698;SDS011;33708;49.466;11.176;2023-01-10T12:05:53;13.43;;;2.70;;
4698;SDS011;33708;49.466;11.176;2023-01-10T12:08:36;16.40;;;2.83;;
4698;SDS011;33708;49.466;11.176;2023-01-10T12:11:07;12.83;;;2.67;;
4698;SDS011;33708;49.466;11.176;2023-01-10T12:13:55;18.33;;;3.87;;
4698;SDS011;33708;49.466;11.176;2023-01-10T12:18:52;16.23;;;3.50;;
4698;SDS011;33708;49.466;11.176;2023-01-10T12:21:23;22.83;;;3.27;;
4698;SDS011;33708;49.466;11.176;2023-01-10T12:23:55;12.07;;;2.57;;
4698;SDS011;33708;49.466;11.176;2023-01-10T12:26:24;14.80;;;3.00;;
4698;SDS011;33708;49.466;11.176;2023-01-10T12:28:54;17.27;;;3.80;;
4698;SDS011;33708;49.466;11.176;2023-01-10T12:31:23;15.77;;;3.47;;
4698;SDS011;33708;49.466;11.176;2023-01-10T12:33:56;18.50;;;2.30;;
4698;SDS011;33708;49.466;11.176;2023-01-10T12:36:29;15.07;;;3.33;;
4698;SDS011;33708;49.466;11.176;2023-01-10T12:44:35;18.50;;;3.27;;
4698;SDS011;33708;49.466;11.176;2023-01-10T12:49:54;18.87;;;3.33;;
4698;SDS011;33708;49.466;11.176;2023-01-10T12:52:32;17.07;;;3.13;;
4698;SDS011;33708;49.466;11.176;2023-01-10T12:55:11;21.80;;;2.70;;
4698;SDS011;33708;49.466;11.176;2023-01-10T12:57:38;23.07;;;3.07;;
4698;SDS011;33708;49.466;11.176;2023-01-10T13:00:06;16.13;;;2.87;;
4698;SDS011;33708;49.466;11.176;2023-01-10T13:02:45;16.10;;;2.50;;
4698;SDS011;33708;49.466;11.176;2023-01-10T13:05:23;15.37;;;3.70;;
4698;SDS011;33708;49.466;11.176;2023-01-10T13:07:52;21.47;;;3.60;;
4698;SDS011;33708;49.466;11.176;2023-01-10T13:10:23;22.23;;;3.10;;
4698;SDS011;33708;49.466;11.176;2023-01-10T13:12:58;23.63;;;3.90;;
4698;SDS011;33708;49.466;11.176;2023-01-10T13:15:41;20.63;;;3.90;;
4698;SDS011;33708;49.466;11.176;2023-01-10T13:18:24;14.07;;;3.30;;
4698;SDS011;33708;49.466;11.176;2023-01-10T13:21:01;19.07;;;4.40;;
4698;SDS011;33708;49.466;11.176;2023-01-10T13:23:46;16.13;;;3.93;;
4698;SDS011;33708;49.466;11.176;2023-01-10T13:26:13;16.63;;;3.70;;
4698;SDS011;33708;49.466;11.176;2023-01-10T13:28:42;24.30;;;3.37;;
4698;SDS011;33708;49.466;11.176;2023-01-10T13:31:32;20.43;;;3.50;;
4698;SDS011;33708;49.466;11.176;2023-01-10T13:34:06;21.13;;;5.03;;
4698;SDS011;33708;49.466;11.176;2023-01-10T13:39:04;22.90;;;5.63;;
4698;SDS011;33708;49.466;11.176;2023-01-10T13:45:24;22.37;;;5.20;;
4698;SDS011;33708;49.466;11.176;2023-01-10T14:09:00;22.77;;;4.10;;
4698;SDS011;33708;49.466;11.176;2023-01-10T14:13:57;16.87;;;3.53;;
4698;SDS011;33708;49.466;11.176;2023-01-10T14:16:36;14.30;;;3.20;;
4698;SDS011;33708;49.466;11.176;2023-01-10T14:19:06;14.80;;;3.10;;
4698;SDS011;33708;49.466;11.176;2023-01-10T14:22:04;19.73;;;3.40;;
4698;SDS011;33708;49.466;11.176;2023-01-10T14:24:49;19.60;;;3.67;;
4698;SDS011;33708;49.466;11.176;2023-01-10T14:27:30;14.33;;;3.27;;
4698;SDS011;33708;49.466;11.176;2023-01-10T14:30:26;14.20;;;3.27;;
4698;SDS011;33708;49.466;11.176;2023-01-10T14:33:01;14.93;;;2.80;;
4698;SDS011;33708;49.466;11.176;2023-01-10T14:35:46;15.57;;;3.53;;
4698;SDS011;33708;49.466;11.176;2023-01-10T14:41:50;13.97;;;3.13;;
4698;SDS011;33708;49.466;11.176;2023-01-10T14:46:50;17.23;;;3.13;;
4698;SDS011;33708;49.466;11.176;2023-01-10T14:49:29;20.80;;;3.60;;
4698;SDS011;33708;49.466;11.176;2023-01-10T14:52:16;16.60;;;2.50;;
4698;SDS011;33708;49.466;11.176;2023-01-10T14:55:02;13.03;;;2.17;;
4698;SDS011;33708;49.466;11.176;2023-01-10T14:57:51;20.93;;;3.10;;
4698;SDS011;33708;49.466;11.176;2023-01-10T15:00:28;25.03;;;3.27;;
4698;SDS011;33708;49.466;11.176;2023-01-10T15:02:56;17.00;;;3.70;;
4698;SDS011;33708;49.466;11.176;2023-01-10T15:05:26;21.07;;;3.60;;
4698;SDS011;33708;49.466;11.176;2023-01-10T15:07:55;13.37;;;2.80;;
4698;SDS011;33708;49.466;11.176;2023-01-10T15:10:53;13.10;;;3.03;;
4698;SDS011;33708;49.466;11.176;2023-01-10T15:13:27;19.47;;;3.80;;
4698;SDS011;33708;49.466;11.176;2023-01-10T15:15:55;21.53;;;3.50;;
4698;SDS011;33708;49.466;11.176;2023-01-10T15:18:27;18.07;;;2.70;;
4698;SDS011;33708;49.466;11.176;2023-01-10T15:21:23;16.20;;;3.23;;
4698;SDS011;33708;49.466;11.176;2023-01-10T15:23:51;20.50;;;4.00;;
4698;SDS011;33708;49.466;11.176;2023-01-10T15:26:25;19.50;;;3.20;;
4698;SDS011;33708;49.466;11.176;2023-01-10T15:29:05;18.13;;;3.83;;
4698;SDS011;33708;49.466;11.176;2023-01-10T15:31:42;18.80;;;4.00;;
4698;SDS011;33708;49.466;11.176;2023-01-10T15:34:09;15.13;;;3.20;;
4698;SDS011;33708;49.466;11.176;2023-01-10T15:36:58;15.70;;;3.40;;
4698;SDS011;33708;49.466;11.176;2023-01-10T15:39:26;15.83;;;3.17;;
4698;SDS011;33708;49.466;11.176;2023-01-10T15:41:55;14.17;;;2.97;;
4698;SDS011;33708;49.466;11.176;2023-01-10T15:44:30;14.93;;;3.20;;
4698;SDS011;33708;49.466;11.176;2023-01-10T15:47:00;18.23;;;3.00;;
4698;SDS011;33708;49.466;11.176;2023-01-10T15:49:26;18.87;;;3.47;;
4698;SDS011;33708;49.466;11.176;2023-01-10T15:51:52;18.07;;;3.00;;
4698;SDS011;33708;49.466;11.176;2023-01-10T15:56:51;19.47;;;3.20;;
4698;SDS011;33708;49.466;11.176;2023-01-10T16:01:59;16.33;;;3.30;;
4698;SDS011;33708;49.466;11.176;2023-01-10T16:04:56;17.03;;;3.17;;
4698;SDS011;33708;49.466;11.176;2023-01-10T16:07:29;13.00;;;2.90;;
4698;SDS011;33708;49.466;11.176;2023-01-10T16:10:02;16.13;;;3.27;;
4698;SDS011;33708;49.466;11.176;2023-01-10T16:12:40;16.37;;;2.70;;
4698;SDS011;33708;49.466;11.176;2023-01-10T16:15:29;21.87;;;3.40;;
4698;SDS011;33708;49.466;11.176;2023-01-10T16:17:59;18.93;;;3.00;;
4698;SDS011;33708;49.466;11.176;2023-01-10T16:20:26;15.07;;;2.73;;
4698;SDS011;33708;49.466;11.176;2023-01-10T16:22:54;14.80;;;2.70;;
4698;SDS011;33708;49.466;11.176;2023-01-10T16:25:23;16.83;;;3.00;;
4698;SDS011;33708;49.466;11.176;2023-01-10T16:27:59;16.40;;;2.97;;
4698;SDS011;33708;49.466;11.176;2023-01-10T16:30:26;18.30;;;2.90;;
4698;SDS011;33708;49.466;11.176;2023-01-10T16:32:53;16.33;;;3.00;;
4698;SDS011;33708;49.466;11.176;2023-01-10T16:35:21;13.37;;;2.23;;
4698;SDS011;33708;49.466;11.176;2023-01-10T16:37:47;21.73;;;3.20;;
4698;SDS011;33708;49.466;11.176;2023-01-10T16:40:19;20.30;;;2.80;;
4698;SDS011;33708;49.466;11.176;2023-01-10T16:43:06;16.27;;;2.90;;
4698;SDS011;33708;49.466;11.176;2023-01-10T16:45:46;13.20;;;2.40;;
4698;SDS011;33708;49.466;11.176;2023-01-10T16:48:13;14.97;;;2.40;;
4698;SDS011;33708;49.466;11.176;2023-01-10T16:50:40;11.83;;;2.63;;
4698;SDS011;33708;49.466;11.176;2023-01-10T16:53:06;14.27;;;2.60;;
4698;SDS011;33708;49.466;11.176;2023-01-10T16:55:43;19.43;;;2.70;;
4698;SDS011;33708;49.466;11.176;2023-01-10T16:58:09;12.73;;;3.10;;